Time;durP1;ratioP1;P1;durP2;ratioP2;P2;SDS_P1;SDS_P2;PMS_P1;PMS_P2;Temp;Humidity;BMP_temperature;BMP_pressure;BME280_temperature;BME280_humidity;BME280_pressure;Samples;Min_cycle;Max_cycle;Signal;HPM_P1;HPM_P2
2022/04/20 00:00:48;;;;;;;56.50;27.50;;;;;;;2.64;66.74;100099.16;1401136;85;21358;-86
2022/04/20 00:03:15;;;;;;;64.83;28.77;;;;;;;2.64;66.18;100099.16;1422144;87;21584;-86
2022/04/20 00:05:42;;;;;;;48.17;23.43;;;;;;;2.65;66.63;100100.84;1405575;85;21515;-86
2022/04/20 00:08:09;;;;;;;50.57;22.97;;;;;;;2.62;66.99;100102.84;1404065;87;21616;-86
2022/04/20 00:10:36;;;;;;;44.63;23.77;;;;;;;2.56;66.92;100108.02;1421742;87;22675;-86
2022/04/20 00:13:03;;;;;;;36.43;20.43;;;;;;;2.52;67.66;100102.61;1413391;87;21462;-86
2022/04/20 00:15:30;;;;;;;44.90;22.00;;;;;;;2.46;67.05;100108.25;1413454;86;21525;-86
2022/04/20 00:17:57;;;;;;;35.47;19.17;;;;;;;2.40;67.63;100106.89;1413456;87;21301;-86
2022/04/20 00:20:25;;;;;;;41.27;23.77;;;;;;;2.36;67.91;100101.97;1413343;86;21579;-86
2022/04/20 00:22:52;;;;;;;52.13;26.40;;;;;;;2.33;68.31;100102.17;1413816;86;21375;-86
2022/04/20 00:25:19;;;;;;;41.70;22.17;;;;;;;2.30;68.58;100098.46;1413247;86;21279;-87
2022/04/20 00:27:46;;;;;;;40.52;22.93;;;;;;;2.29;67.79;100099.41;1409915;86;22458;-87
2022/04/20 00:30:13;;;;;;;43.90;24.87;;;;;;;2.28;68.79;100097.75;1396888;87;21383;-86
2022/04/20 00:32:41;;;;;;;49.67;24.60;;;;;;;2.21;69.04;100094.22;1401356;88;21400;-87
2022/04/20 00:35:13;;;;;;;46.20;24.17;;;;;;;2.15;68.19;100095.94;1392982;87;21607;-86
2022/04/20 00:37:43;;;;;;;42.23;23.10;;;;;;;2.13;68.14;100093.92;1408919;88;21710;-85
2022/04/20 00:40:12;;;;;;;47.10;25.88;;;;;;;2.08;69.02;100095.16;1394281;86;21360;-84
2022/04/20 00:42:41;;;;;;;192.77;94.37;;;;;;;2.07;68.53;100098.21;1402280;87;21417;-85
2022/04/20 00:45:10;;;;;;;192.00;90.33;;;;;;;2.05;69.48;100099.28;1402022;88;21375;-84
2022/04/20 00:47:42;;;;;;;85.50;41.85;;;;;;;1.99;69.65;100097.91;1407189;86;22896;-84
2022/04/20 00:50:11;;;;;;;53.23;27.58;;;;;;;1.98;69.11;100099.66;1401505;88;21286;-84
2022/04/20 00:52:38;;;;;;;85.47;38.90;;;;;;;1.94;69.69;100093.45;1410258;87;21292;-84
2022/04/20 00:55:06;;;;;;;62.78;32.55;;;;;;;1.93;69.54;100094.40;1411673;87;21568;-85
2022/04/20 00:57:33;;;;;;;60.90;30.40;;;;;;;1.92;68.96;100092.70;1400440;87;21331;-82
2022/04/20 01:00:03;;;;;;;50.30;26.87;;;;;;;1.90;69.41;100089.35;1400712;88;21271;-82
2022/04/20 01:02:31;;;;;;;49.90;26.17;;;;;;;1.83;70.34;100093.31;1421541;85;21403;-82
2022/04/20 01:04:58;;;;;;;61.18;30.15;;;;;;;1.74;70.36;100086.45;1420171;86;22224;-82
2022/04/20 01:07:25;;;;;;;60.10;26.48;;;;;;;1.64;70.67;100082.77;1421297;86;21256;-82
2022/04/20 01:09:52;;;;;;;59.77;30.95;;;;;;;1.62;70.21;100085.11;1421736;86;21309;-83
2022/04/20 01:12:21;;;;;;;57.40;27.37;;;;;;;1.63;69.30;100090.69;1421620;85;22143;-83
2022/04/20 01:14:48;;;;;;;55.80;29.40;;;;;;;1.62;69.51;100088.55;1400500;87;21346;-83
2022/04/20 01:17:15;;;;;;;48.28;24.18;;;;;;;1.63;70.77;100094.59;1403764;87;22344;-83
2022/04/20 01:19:42;;;;;;;46.37;24.02;;;;;;;1.60;70.09;100091.72;1407942;88;21285;-83
2022/04/20 01:22:10;;;;;;;39.98;20.45;;;;;;;1.55;71.51;100097.69;1415903;86;21405;-83
2022/04/20 01:24:38;;;;;;;44.63;22.40;;;;;;;1.48;71.63;100092.51;1397930;87;21385;-83
2022/04/20 01:27:06;;;;;;;38.98;21.30;;;;;;;1.43;71.27;100093.27;1416312;86;21315;-83
2022/04/20 01:29:35;;;;;;;29.65;15.38;;;;;;;1.42;70.52;100088.52;1415029;86;22233;-83
2022/04/20 01:32:03;;;;;;;24.00;14.75;;;;;;;1.43;70.62;100088.88;1381975;89;21301;-84
2022/04/20 01:34:30;;;;;;;19.52;11.63;;;;;;;1.41;70.74;100093.38;1418154;86;21388;-82
2022/04/20 01:36:57;;;;;;;19.75;10.70;;;;;;;1.41;69.56;100101.20;1391724;85;21251;-83
2022/04/20 01:39:23;;;;;;;20.12;11.12;;;;;;;1.43;69.13;100096.70;1390200;89;22300;-83
2022/04/20 01:41:51;;;;;;;22.65;12.60;;;;;;;1.45;68.85;100100.53;1418108;86;21263;-83
2022/04/20 01:44:18;;;;;;;22.40;11.40;;;;;;;1.47;68.73;100101.28;1421791;86;21249;-84
2022/04/20 01:46:45;;;;;;;18.35;11.25;;;;;;;1.47;69.67;100102.58;1421991;85;22275;-82
2022/04/20 01:49:12;;;;;;;22.87;13.62;;;;;;;1.45;70.22;100100.53;1429176;85;21349;-81
2022/04/20 01:51:50;;;;;;;27.17;15.13;;;;;;;1.38;70.76;100094.02;1413617;87;21320;-82
2022/04/20 01:54:21;;;;;;;34.58;18.77;;;;;;;1.33;70.77;100098.23;1429717;85;21463;-81
2022/04/20 01:56:51;;;;;;;42.73;20.57;;;;;;;1.29;70.91;100102.78;1413863;87;21275;-82
2022/04/20 01:59:18;;;;;;;33.67;19.35;;;;;;;1.25;70.97;100102.61;1418127;87;22217;-81
2022/04/20 02:04:33;;;;;;;34.63;18.25;;;;;;;1.29;70.02;100105.39;1423013;86;21271;-81
2022/04/20 02:07:00;;;;;;;38.25;21.23;;;;;;;1.32;69.75;100102.62;1434730;85;21337;-81
2022/04/20 02:09:27;;;;;;;42.03;19.57;;;;;;;1.33;69.60;100105.58;1418078;85;22236;-81
2022/04/20 02:11:54;;;;;;;52.80;23.77;;;;;;;1.35;69.24;100103.73;1388299;87;22160;-81
2022/04/20 02:14:21;;;;;;;42.00;20.90;;;;;;;1.37;69.21;100102.78;1403235;88;22121;-81
2022/04/20 02:16:48;;;;;;;49.35;26.02;;;;;;;1.40;69.34;100096.06;1433692;85;21338;-81
2022/04/20 02:19:15;;;;;;;67.87;27.13;;;;;;;1.44;69.08;100105.36;1414808;85;21334;-82
2022/04/20 02:21:43;;;;;;;47.70;23.80;;;;;;;1.45;68.75;100107.05;1428864;86;21264;-83
2022/04/20 02:24:10;;;;;;;51.05;23.67;;;;;;;1.47;69.57;100101.28;1407544;86;21339;-82
2022/04/20 02:26:37;;;;;;;43.60;20.62;;;;;;;1.46;70.75;100103.50;1411624;87;21216;-83
2022/04/20 02:29:04;;;;;;;42.70;20.23;;;;;;;1.40;70.00;100103.89;1411510;87;22234;-82
2022/04/20 02:31:31;;;;;;;36.53;19.82;;;;;;;1.37;69.74;100109.30;1413441;87;21341;-82
2022/04/20 02:33:59;;;;;;;42.83;23.60;;;;;;;1.37;69.35;100111.91;1417375;86;21278;-83
2022/04/20 02:36:26;;;;;;;44.15;24.52;;;;;;;1.38;69.20;100114.87;1433856;85;21255;-83
2022/04/20 02:38:54;;;;;;;41.73;23.07;;;;;;;1.41;69.30;100112.94;1419385;85;21236;-82
2022/04/20 02:41:21;;;;;;;42.20;22.07;;;;;;;1.41;70.64;100110.77;1429505;85;21307;-84
2022/04/20 02:43:49;;;;;;;38.85;21.87;;;;;;;1.34;70.61;100111.16;1406471;85;21370;-85
2022/04/20 02:46:16;;;;;;;41.23;23.30;;;;;;;1.31;70.47;100117.04;1401786;89;21374;-85
2022/04/20 02:48:43;;;;;;;37.88;22.55;;;;;;;1.29;70.46;100116.29;1412498;85;21383;-85
2022/04/20 02:51:11;;;;;;;46.20;22.10;;;;;;;1.27;70.30;100114.27;1426637;85;21344;-84
2022/04/20 02:53:38;;;;;;;35.85;21.65;;;;;;;1.27;70.44;100120.31;1432751;85;21506;-85
2022/04/20 02:56:06;;;;;;;43.45;23.70;;;;;;;1.26;70.74;100118.62;1432382;85;21485;-85
2022/04/20 02:58:33;;;;;;;41.25;21.87;;;;;;;1.22;71.52;100121.06;1432668;84;22224;-85
2022/04/20 03:01:00;;;;;;;42.95;21.82;;;;;;;1.12;72.32;100121.24;1406202;86;21384;-84
2022/04/20 03:03:27;;;;;;;35.75;21.77;;;;;;;1.01;72.46;100122.40;1387034;89;21281;-84
2022/04/20 03:05:54;;;;;;;43.42;20.95;;;;;;;0.94;72.82;100127.12;1431806;85;21293;-84
2022/04/20 03:08:23;;;;;;;46.55;22.37;;;;;;;0.84;73.50;100121.65;1433019;85;21293;-85
2022/04/20 03:10:51;;;;;;;48.00;27.02;;;;;;;0.82;74.45;100120.89;1415743;85;21445;-84
2022/04/20 03:13:19;;;;;;;51.23;24.82;;;;;;;0.83;73.02;100126.94;1433482;85;21256;-82
2022/04/20 03:15:46;;;;;;;52.43;26.42;;;;;;;0.78;73.58;100127.23;1414378;85;21312;-81
2022/04/20 03:18:13;;;;;;;50.48;26.60;;;;;;;0.72;73.39;100131.52;1429407;85;21315;-81
2022/04/20 03:20:41;;;;;;;58.13;27.62;;;;;;;0.66;73.03;100133.16;1412986;85;22182;-81
2022/04/20 03:23:12;;;;;;;53.95;27.48;;;;;;;0.62;73.15;100130.38;1412230;86;22191;-82
2022/04/20 03:25:39;;;;;;;56.98;27.02;;;;;;;0.63;72.99;100134.64;1413026;87;21547;-83
2022/04/20 03:28:06;;;;;;;48.87;25.97;;;;;;;0.60;73.64;100137.43;1432660;85;22297;-83
2022/04/20 03:30:35;;;;;;;57.03;27.87;;;;;;;0.56;73.82;100134.18;1433074;85;21382;-82
2022/04/20 03:33:04;;;;;;;53.48;29.25;;;;;;;0.51;74.07;100140.59;1432394;85;21264;-81
2022/04/20 03:35:31;;;;;;;63.48;32.55;;;;;;;0.44;74.11;100133.14;1416429;85;21332;-82
2022/04/20 03:37:59;;;;;;;62.27;30.32;;;;;;;0.40;73.92;100138.17;1427167;87;21204;-82
2022/04/20 03:40:28;;;;;;;66.22;32.38;;;;;;;0.37;73.90;100139.63;1430170;85;22378;-81
2022/04/20 03:42:55;;;;;;;65.92;31.87;;;;;;;0.38;73.20;100138.71;1412881;87;21459;-81
2022/04/20 03:45:22;;;;;;;63.68;28.98;;;;;;;0.43;73.14;100134.08;1397134;88;21328;-81
2022/04/20 03:47:49;;;;;;;57.33;27.93;;;;;;;0.47;73.23;100136.03;1409581;87;21378;-81
2022/04/20 03:50:17;;;;;;;57.15;29.30;;;;;;;0.51;72.67;100132.77;1425691;85;21389;-82
2022/04/20 03:52:44;;;;;;;53.55;26.07;;;;;;;0.57;72.47;100142.83;1429855;85;21337;-83
2022/04/20 03:55:11;;;;;;;53.63;23.40;;;;;;;0.59;72.34;100144.41;1401153;87;21339;-82
2022/04/20 03:57:39;;;;;;;55.85;26.68;;;;;;;0.58;72.17;100145.83;1396400;88;21242;-81
2022/04/20 04:00:08;;;;;;;52.50;25.00;;;;;;;0.57;72.85;100149.34;1414620;87;21456;-81
2022/04/20 04:02:36;;;;;;;53.45;23.60;;;;;;;0.60;73.49;100142.64;1424380;85;22305;-81
2022/04/20 04:05:03;;;;;;;42.55;21.80;;;;;;;0.67;72.85;100142.67;1405374;87;21339;-83
2022/04/20 04:07:30;;;;;;;46.40;22.73;;;;;;;0.70;74.24;100143.78;1414490;85;21294;-81
2022/04/20 04:09:57;;;;;;;56.42;27.07;;;;;;;0.69;73.40;100145.99;1397203;88;21332;-82
2022/04/20 04:12:24;;;;;;;58.17;27.55;;;;;;;0.71;73.20;100153.27;1414940;85;22180;-82
2022/04/20 04:14:51;;;;;;;50.65;25.65;;;;;;;0.65;75.18;100151.02;1412423;85;22217;-82
2022/04/20 04:17:19;;;;;;;68.05;31.60;;;;;;;0.64;74.13;100151.97;1400043;88;22373;-82
2022/04/20 04:19:46;;;;;;;69.32;30.30;;;;;;;0.66;73.57;100153.99;1424649;85;22286;-82
2022/04/20 04:22:13;;;;;;;77.70;32.00;;;;;;;0.70;75.15;100159.41;1397115;88;21384;-82
2022/04/20 04:24:40;;;;;;;74.37;34.67;;;;;;;0.74;74.32;100158.28;1399195;88;21389;-81
2022/04/20 04:27:10;;;;;;;82.30;35.98;;;;;;;0.83;74.47;100165.55;1403166;87;21221;-82
2022/04/20 04:29:38;;;;;;;61.08;31.10;;;;;;;0.94;73.90;100165.38;1398311;88;21331;-83
2022/04/20 04:32:07;;;;;;;85.67;36.10;;;;;;;1.03;74.15;100170.03;1400108;88;21347;-83
2022/04/20 04:34:34;;;;;;;72.92;34.45;;;;;;;1.12;74.06;100165.55;1400574;88;21420;-83
2022/04/20 04:37:02;;;;;;;85.17;37.63;;;;;;;1.28;74.02;100162.39;1400635;88;22255;-81
2022/04/20 04:39:29;;;;;;;90.92;37.88;;;;;;;1.37;74.15;100164.06;1409024;87;21234;-81
2022/04/20 04:41:57;;;;;;;76.45;34.73;;;;;;;1.45;73.77;100161.81;1420639;87;21322;-81
2022/04/20 04:44:24;;;;;;;83.22;36.35;;;;;;;1.53;74.59;100159.57;1406661;85;22360;-82
2022/04/20 04:49:36;;;;;;;75.70;33.05;;;;;;;1.66;74.36;100161.76;1400272;88;21287;-81
2022/04/20 04:52:06;;;;;;;72.37;32.07;;;;;;;1.80;73.86;100164.80;1400183;87;21376;-81
2022/04/20 04:54:33;;;;;;;68.72;32.15;;;;;;;1.90;73.32;100163.29;1407339;87;21701;-81
2022/04/20 04:57:00;;;;;;;57.90;27.50;;;;;;;2.07;73.01;100166.56;1400785;87;22395;-80
2022/04/20 04:59:28;;;;;;;72.10;28.13;;;;;;;2.25;72.90;100173.21;1401229;87;21568;-81
2022/04/20 05:01:55;;;;;;;64.60;28.53;;;;;;;2.41;72.72;100166.49;1401135;87;21569;-80
2022/04/20 05:04:22;;;;;;;52.50;22.67;;;;;;;2.55;72.36;100172.94;1400296;87;21394;-82
2022/04/20 05:06:49;;;;;;;51.97;27.23;;;;;;;2.74;72.08;100171.72;1400752;88;21553;-81
2022/04/20 05:09:16;;;;;;;51.73;28.00;;;;;;;2.89;71.99;100173.29;1403007;87;22456;-82
2022/04/20 05:11:43;;;;;;;53.57;24.20;;;;;;;3.05;71.75;100173.92;1403626;88;22813;-79
2022/04/20 05:14:13;;;;;;;41.97;23.13;;;;;;;3.24;71.42;100172.16;1414736;85;21408;-81
2022/04/20 05:16:40;;;;;;;38.53;19.33;;;;;;;3.42;71.11;100172.64;1405069;85;21672;-81
2022/04/20 05:19:07;;;;;;;34.57;17.87;;;;;;;3.60;70.89;100179.20;1421009;85;21417;-81
2022/04/20 05:21:34;;;;;;;26.90;14.57;;;;;;;3.77;70.64;100171.91;1421706;85;21443;-84
2022/04/20 05:24:01;;;;;;;25.37;14.43;;;;;;;3.87;69.91;100182.09;1414812;87;21555;-84
2022/04/20 05:26:28;;;;;;;38.57;13.37;;;;;;;3.91;69.61;100184.84;1423594;86;22405;-84
2022/04/20 05:28:55;;;;;;;37.70;15.70;;;;;;;4.00;69.44;100181.59;1432369;86;21541;-84
2022/04/20 05:31:22;;;;;;;29.47;13.83;;;;;;;4.05;69.36;100178.13;1432749;85;21748;-84
2022/04/20 05:33:50;;;;;;;25.23;12.87;;;;;;;4.13;69.16;100180.20;1432270;85;21493;-83
2022/04/20 05:36:20;;;;;;;28.07;14.10;;;;;;;4.28;69.08;100178.23;1432895;85;21696;-84
2022/04/20 05:41:39;;;;;;;22.73;14.07;;;;;;;4.56;68.96;100188.81;1393997;87;21642;-84
2022/04/20 05:43:54;;;;;;;23.27;13.27;;;;;;;4.72;68.91;100187.20;1430507;85;21726;-84
2022/04/20 05:46:21;;;;;;;26.83;12.93;;;;;;;5.14;68.27;100191.42;1432131;85;22538;-84
2022/04/20 05:48:48;;;;;;;25.50;13.33;;;;;;;5.32;68.30;100178.20;1432439;85;21854;-84
2022/04/20 05:51:18;;;;;;;14.43;8.80;;;;;;;5.49;65.85;100183.89;1434411;84;21881;-85
2022/04/20 05:56:52;;;;;;;17.67;8.80;;;;;;;5.66;66.37;100186.02;1426758;85;21525;-83
2022/04/20 05:59:19;;;;;;;14.90;8.10;;;;;;;5.78;64.93;100186.83;1427024;85;22908;-83
2022/04/20 06:01:47;;;;;;;11.13;8.50;;;;;;;5.87;63.17;100179.06;1428087;86;22117;-83
2022/04/20 06:04:14;;;;;;;11.53;7.63;;;;;;;6.01;62.36;100185.02;1426938;85;21879;-83
2022/04/20 06:06:42;;;;;;;14.47;9.13;;;;;;;6.13;62.78;100184.04;1427066;85;21947;-82
2022/04/20 06:09:09;;;;;;;13.90;8.37;;;;;;;6.25;61.89;100186.14;1411760;87;22050;-83
2022/04/20 06:11:36;;;;;;;15.93;8.63;;;;;;;6.33;60.32;100185.87;1426905;86;21931;-83
2022/04/20 06:14:03;;;;;;;17.70;8.67;;;;;;;6.38;60.44;100184.64;1427368;86;22930;-83
2022/04/20 06:16:30;;;;;;;11.90;8.50;;;;;;;6.53;60.79;100182.05;1426862;85;21992;-82
2022/04/20 06:18:58;;;;;;;13.20;7.40;;;;;;;6.70;59.44;100177.56;1427171;86;21975;-83
2022/04/20 06:21:25;;;;;;;10.73;7.83;;;;;;;6.70;59.44;100177.56;1427760;85;21272;-82
2022/04/20 06:23:52;;;;;;;11.70;7.23;;;;;;;6.84;58.44;100175.54;1427037;86;21272;-83
2022/04/20 06:26:19;;;;;;;11.63;6.40;;;;;;;6.80;57.88;100176.29;1427140;85;21437;-83
2022/04/20 06:28:46;;;;;;;11.67;7.57;;;;;;;6.77;57.81;100174.75;1428494;86;22240;-81
2022/04/20 06:31:13;;;;;;;10.40;6.33;;;;;;;6.90;57.78;100181.59;1427008;85;22045;-84
2022/04/20 06:33:46;;;;;;;11.87;7.33;;;;;;;7.08;57.19;100172.61;1427157;85;21301;-84
2022/04/20 06:36:13;;;;;;;14.33;7.50;;;;;;;7.14;56.33;100172.94;1427398;86;21375;-84
2022/04/20 06:38:40;;;;;;;13.40;7.53;;;;;;;7.33;56.90;100165.59;1426666;85;22047;-84
2022/04/20 06:41:13;;;;;;;12.13;8.33;;;;;;;7.45;56.20;100167.64;1426933;85;22143;-84
2022/04/20 06:43:40;;;;;;;14.13;8.57;;;;;;;7.61;56.29;100169.78;1427648;86;21315;-87
2022/04/20 06:46:07;;;;;;;12.00;7.13;;;;;;;7.77;54.81;100165.29;1428335;85;21264;-85
2022/04/20 06:48:34;;;;;;;11.87;7.87;;;;;;;7.80;55.03;100169.83;1431669;85;22096;-85
2022/04/20 06:51:02;;;;;;;9.50;6.50;;;;;;;8.01;55.34;100167.07;1431719;85;21389;-84
2022/04/20 06:58:31;;;;;;;11.63;7.80;;;;;;;8.25;53.52;100160.55;1430613;85;21249;-84
2022/04/20 06:58:55;;;;;;;14.55;8.43;;;;;;;8.47;53.31;100152.39;1429660;85;21272;-85
2022/04/20 07:01:22;;;;;;;12.23;7.23;;;;;;;8.61;53.70;100148.98;1430411;86;22195;-84
2022/04/20 07:03:49;;;;;;;14.90;7.70;;;;;;;8.63;52.87;100143.05;1431485;85;21366;-85
2022/04/20 07:06:16;;;;;;;12.60;7.97;;;;;;;8.73;52.14;100147.84;1430954;85;21257;-85
2022/04/20 07:08:43;;;;;;;11.10;6.90;;;;;;;8.89;53.02;100148.08;1430959;85;21449;-85
2022/04/20 07:11:12;;;;;;;9.23;5.97;;;;;;;8.88;51.75;100150.36;1400185;88;21445;-86
2022/04/20 07:13:40;;;;;;;13.07;7.43;;;;;;;9.00;52.17;100149.20;1400649;88;22299;-86
2022/04/20 07:16:07;;;;;;;12.30;8.03;;;;;;;8.93;51.32;100152.09;1401260;87;21397;-85
2022/04/20 07:18:34;;;;;;;12.90;7.30;;;;;;;9.02;51.76;100145.94;1400249;88;21243;-86
2022/04/20 07:21:02;;;;;;;13.37;6.97;;;;;;;9.15;51.32;100143.45;1400125;88;21243;-86
2022/04/20 07:23:29;;;;;;;14.30;8.90;;;;;;;9.30;51.24;100145.97;1401680;87;21264;-86
2022/04/20 07:25:56;;;;;;;10.97;7.77;;;;;;;9.64;51.66;100148.03;1384435;89;22248;-85
2022/04/20 07:28:23;;;;;;;11.40;6.77;;;;;;;9.86;51.85;100142.30;1401926;88;21293;-85
2022/04/20 07:30:50;;;;;;;8.93;7.13;;;;;;;10.06;50.72;100146.13;1401648;88;21286;-85
2022/04/20 07:33:17;;;;;;;11.17;6.30;;;;;;;10.25;50.72;100144.66;1401886;88;21501;-85
2022/04/20 07:35:45;;;;;;;18.70;7.80;;;;;;;10.33;49.06;100144.76;1401583;88;21316;-85
2022/04/20 07:38:12;;;;;;;12.23;8.50;;;;;;;10.43;48.87;100145.16;1402003;88;21437;-84
2022/04/20 07:40:40;;;;;;;9.23;6.77;;;;;;;10.56;49.54;100140.31;1402067;88;21330;-85
2022/04/20 07:43:07;;;;;;;11.50;7.80;;;;;;;10.57;47.33;100144.11;1401682;88;21257;-85
2022/04/20 07:45:34;;;;;;;10.47;7.93;;;;;;;10.75;49.44;100129.50;1400537;87;21256;-84
2022/04/20 07:48:01;;;;;;;10.27;6.50;;;;;;;11.00;48.92;100125.68;1403758;87;21412;-81
2022/04/20 07:50:28;;;;;;;11.77;7.17;;;;;;;11.26;48.44;100121.16;1403400;87;21404;-87
2022/04/20 07:53:00;;;;;;;9.93;6.80;;;;;;;11.46;47.76;100121.73;1403877;87;21433;-87
2022/04/20 07:55:30;;;;;;;13.43;7.43;;;;;;;11.63;47.51;100117.31;1397350;88;21308;-87
2022/04/20 07:58:00;;;;;;;9.33;6.45;;;;;;;11.75;46.50;100119.98;1397128;88;21449;-87
2022/04/20 08:00:28;;;;;;;10.67;6.53;;;;;;;11.81;45.36;100113.20;1396525;88;22145;-87
2022/04/20 08:03:18;;;;;;;14.53;8.90;;;;;;;11.86;43.30;100112.76;1396220;88;22233;-87
2022/04/20 08:05:55;;;;;;;10.18;7.08;;;;;;;11.93;43.38;100119.88;1381371;90;22188;-87
2022/04/20 08:08:24;;;;;;;8.43;6.13;;;;;;;12.12;45.42;100108.13;1379064;89;21323;-87
2022/04/20 08:10:51;;;;;;;8.83;5.63;;;;;;;12.27;43.09;100111.45;1398418;88;21383;-87
2022/04/20 08:16:04;;;;;;;8.83;6.07;;;;;;;12.18;42.68;100107.47;1395889;88;21412;-88
2022/04/20 08:18:31;;;;;;;11.50;6.70;;;;;;;11.92;40.62;100106.80;1396419;88;21368;-87
2022/04/20 08:20:59;;;;;;;8.97;5.83;;;;;;;11.43;40.00;100100.03;1396165;88;21222;-87
2022/04/20 08:23:29;;;;;;;8.37;5.87;;;;;;;11.45;40.78;100099.35;1396406;88;21256;-87
2022/04/20 08:25:54;;;;;;;12.60;8.00;;;;;;;11.30;39.98;100102.62;1397151;88;21486;-87
2022/04/20 08:28:21;;;;;;;9.83;5.10;;;;;;;11.53;41.45;100099.38;1396386;88;21426;-87
2022/04/20 08:30:50;;;;;;;7.03;5.10;;;;;;;11.43;40.65;100100.86;1396739;88;21308;-87
2022/04/20 08:33:17;;;;;;;7.73;5.07;;;;;;;11.78;41.15;100096.80;1396226;88;21415;-87
2022/04/20 08:35:45;;;;;;;6.97;5.77;;;;;;;11.74;40.28;100095.80;1396474;88;21464;-87
2022/04/20 08:38:12;;;;;;;9.37;5.83;;;;;;;11.48;40.26;100091.11;1396036;88;21528;-87
2022/04/20 08:40:41;;;;;;;7.83;5.40;;;;;;;11.44;40.86;100091.08;1382168;88;21553;-89
2022/04/20 08:43:11;;;;;;;7.43;5.77;;;;;;;11.82;40.02;100084.86;1371791;90;21487;-89
2022/04/20 08:45:39;;;;;;;10.50;5.97;;;;;;;12.01;40.29;100087.23;1363436;90;21282;-89
2022/04/20 08:48:07;;;;;;;8.03;5.53;;;;;;;12.38;40.51;100076.11;1363432;90;21318;-89
2022/04/20 08:50:34;;;;;;;6.10;3.70;;;;;;;12.77;40.27;100083.33;1363138;90;21444;-88
2022/04/20 08:53:02;;;;;;;10.53;5.87;;;;;;;12.91;35.75;100079.14;1364190;90;21502;-90
2022/04/20 08:55:30;;;;;;;9.23;5.50;;;;;;;13.17;38.67;100074.88;1357579;92;21405;-89
2022/04/20 08:57:57;;;;;;;9.13;5.53;;;;;;;13.59;38.75;100075.55;1383252;89;21220;-89
2022/04/20 09:00:27;;;;;;;8.07;5.70;;;;;;;13.55;35.63;100071.06;1384484;87;21435;-88
2022/04/20 09:02:57;;;;;;;7.73;6.23;;;;;;;13.23;36.57;100073.37;1391556;88;21250;-90
2022/04/20 09:05:32;;;;;;;10.72;5.17;;;;;;;13.18;38.16;100069.92;1389508;88;21563;-89
2022/04/20 09:07:57;;;;;;;8.83;5.23;;;;;;;13.35;37.40;100076.02;1389364;88;21369;-89
2022/04/20 09:10:25;;;;;;;11.93;6.30;;;;;;;13.01;36.60;100074.47;1390707;88;21354;-89
2022/04/20 09:13:10;;;;;;;8.30;6.40;;;;;;;12.76;36.53;100072.89;1390933;88;21317;-89
2022/04/20 09:15:40;;;;;;;7.93;5.23;;;;;;;12.80;38.06;100078.17;1376142;90;22210;-88
2022/04/20 09:18:10;;;;;;;9.53;5.07;;;;;;;12.44;36.79;100074.61;1391479;88;21424;-88
2022/04/20 09:20:39;;;;;;;7.50;5.97;;;;;;;12.35;37.48;100072.97;1391050;88;21672;-88
2022/04/20 09:23:09;;;;;;;7.07;5.17;;;;;;;12.44;38.39;100074.61;1376068;90;21384;-88
2022/04/20 09:25:39;;;;;;;8.18;6.05;;;;;;;12.60;38.42;100073.73;1391323;88;21265;-87
2022/04/20 09:28:09;;;;;;;8.35;5.65;;;;;;;12.83;38.19;100064.55;1390972;88;21288;-87
2022/04/20 09:30:38;;;;;;;10.50;6.15;;;;;;;13.21;37.52;100067.42;1391005;88;21324;-89
2022/04/20 09:33:07;;;;;;;10.87;6.57;;;;;;;13.66;36.56;100061.86;1391016;88;21383;-88
2022/04/20 09:35:48;;;;;;;11.23;6.67;;;;;;;14.04;36.16;100062.76;1390760;88;21495;-88
2022/04/20 09:38:21;;;;;;;9.17;5.70;;;;;;;14.41;35.41;100064.59;1390401;88;21325;-88
2022/04/20 09:40:49;;;;;;;8.47;5.47;;;;;;;14.86;34.84;100061.46;1391230;88;21274;-78
2022/04/20 09:43:19;;;;;;;5.83;5.10;;;;;;;14.73;35.15;100063.96;1391522;88;21310;-78
2022/04/20 09:49:10;;;;;;;10.10;5.03;;;;;;;15.22;35.87;100040.71;1390574;88;21273;-78
2022/04/20 09:51:43;;;;;;;7.23;5.73;;;;;;;14.76;34.38;100060.93;1390469;88;21477;-78
2022/04/20 09:54:27;;;;;;;41.83;5.80;;;;;;;14.50;34.24;100063.16;1392834;88;21419;-79
2022/04/20 09:57:11;;;;;;;6.00;4.50;;;;;;;14.84;35.16;100067.47;1397292;87;21317;-78
2022/04/20 09:59:56;;;;;;;9.53;5.47;;;;;;;15.36;34.03;100069.66;1393849;88;21354;-78
2022/04/20 10:02:23;;;;;;;7.17;5.27;;;;;;;15.51;32.83;100054.98;1395826;88;21324;-78
2022/04/20 10:04:51;;;;;;;5.63;4.93;;;;;;;15.99;32.92;100061.93;1395830;88;22294;-78
2022/04/20 10:07:19;;;;;;;8.53;5.13;;;;;;;16.53;34.08;100061.84;1398194;87;21413;-78
2022/04/20 10:09:46;;;;;;;6.77;5.37;;;;;;;16.80;32.91;100057.03;1395882;88;21427;-79
2022/04/20 10:12:17;;;;;;;9.67;5.23;;;;;;;16.95;31.60;100060.09;1396022;88;21486;-79
2022/04/20 10:17:46;;;;;;;7.90;4.70;;;;;;;16.00;29.85;100052.92;1395717;87;21177;-79
2022/04/20 10:20:14;;;;;;;6.60;4.53;;;;;;;16.07;32.81;100052.45;1395843;88;22329;-79
2022/04/20 10:22:43;;;;;;;7.50;4.97;;;;;;;16.10;31.41;100052.07;1396005;88;22153;-78
2022/04/20 10:25:12;;;;;;;13.23;5.30;;;;;;;15.82;32.04;100051.20;1395888;88;22195;-81
2022/04/20 10:28:00;;;;;;;7.87;5.28;;;;;;;15.32;32.40;100049.22;1396203;87;21589;-81
2022/04/20 10:30:42;;;;;;;9.10;5.53;;;;;;;14.98;32.59;100052.49;1395830;87;21235;-81
2022/04/20 10:33:19;;;;;;;10.70;6.93;;;;;;;15.00;32.92;100048.33;1395524;88;21449;-81
2022/04/20 10:36:02;;;;;;;6.63;5.10;;;;;;;15.08;32.99;100042.38;1379385;89;21302;-81
2022/04/20 10:38:31;;;;;;;14.60;5.80;;;;;;;15.37;33.39;100043.85;1395775;88;21413;-86
2022/04/20 10:41:14;;;;;;;6.20;5.00;;;;;;;15.54;32.95;100041.27;1396334;87;21465;-85
2022/04/20 10:43:42;;;;;;;25.30;5.20;;;;;;;15.70;32.26;100041.03;1396967;88;21479;-86
2022/04/20 10:46:19;;;;;;;8.50;5.00;;;;;;;15.63;32.08;100039.30;1396074;87;21347;-85
2022/04/20 10:49:07;;;;;;;8.07;5.20;;;;;;;15.33;31.47;100038.89;1396470;87;22425;-86
2022/04/20 10:51:45;;;;;;;9.13;4.53;;;;;;;15.09;31.24;100041.36;1396054;88;21677;-86
2022/04/20 10:54:29;;;;;;;5.30;4.37;;;;;;;14.95;31.13;100030.22;1393977;88;21421;-85
2022/04/20 10:57:05;;;;;;;8.70;3.87;;;;;;;14.65;30.97;100039.56;1407129;86;21303;-85
2022/04/20 10:59:34;;;;;;;6.23;4.43;;;;;;;14.51;31.94;100034.20;1419056;86;21443;-86
2022/04/20 11:02:07;;;;;;;8.90;4.53;;;;;;;14.41;31.77;100033.97;1419642;86;21243;-86
2022/04/20 11:04:50;;;;;;;9.50;5.17;;;;;;;14.42;32.07;100031.62;1419759;86;21228;-86
2022/04/20 11:07:26;;;;;;;9.80;4.83;;;;;;;14.33;32.56;100038.04;1418523;86;21288;-85
2022/04/20 11:10:07;;;;;;;9.63;4.10;;;;;;;14.17;32.33;100034.20;1419565;86;21494;-86
2022/04/20 11:18:38;;;;;;;29.13;5.20;;;;;;;13.58;33.11;100025.53;1420865;86;21421;-86
2022/04/20 11:21:10;;;;;;;7.60;4.50;;;;;;;13.60;33.14;100030.66;1419457;86;21282;-86
2022/04/20 11:24:11;;;;;;;6.57;4.30;;;;;;;13.70;33.51;100033.92;1419679;86;21215;-86
2022/04/20 11:26:43;;;;;;;13.93;5.47;;;;;;;13.62;33.82;100028.16;1419951;86;21369;-86
2022/04/20 11:29:22;;;;;;;5.37;3.87;;;;;;;13.71;33.45;100024.93;1419662;86;21575;-86
2022/04/20 11:31:52;;;;;;;4.80;3.47;;;;;;;13.92;33.30;100025.08;1403758;88;22330;-85
2022/04/20 11:34:20;;;;;;;5.70;3.45;;;;;;;13.96;33.04;100026.39;1420966;86;21648;-86
2022/04/20 11:36:51;;;;;;;6.37;3.50;;;;;;;14.17;32.68;100016.89;1420857;86;21502;-85
2022/04/20 11:39:22;;;;;;;6.70;3.43;;;;;;;14.13;32.13;100013.77;1419711;86;21273;-86
2022/04/20 11:41:59;;;;;;;13.68;3.55;;;;;;;14.31;31.98;100019.27;1419894;86;22707;-87
2022/04/20 11:44:39;;;;;;;6.97;3.27;;;;;;;14.13;31.61;100008.45;1420312;86;21473;-85
2022/04/20 11:47:09;;;;;;;6.77;3.37;;;;;;;14.36;31.90;100008.39;1420144;86;21347;-86
2022/04/20 11:49:41;;;;;;;4.77;3.50;;;;;;;14.48;31.40;100005.28;1419702;86;21562;-86
2022/04/20 11:52:15;;;;;;;4.67;3.00;;;;;;;14.76;31.47;100000.99;1420167;86;21522;-85
2022/04/20 11:54:48;;;;;;;5.67;2.83;;;;;;;14.83;30.45;99996.56;1420112;85;21502;-87
2022/04/20 11:57:16;;;;;;;4.10;3.20;;;;;;;14.87;30.23;99991.20;1411450;87;21251;-86